createdAt,value
2019-04-10T00:04:53.629Z,18.97
2019-04-10T00:09:47.607Z,19.20
2019-04-10T00:14:41.566Z,19.23
2019-04-10T00:19:35.903Z,19.03
2019-04-10T00:24:30.237Z,18.57
2019-04-10T00:29:24.572Z,18.87
2019-04-10T00:34:18.597Z,18.37
2019-04-10T00:39:12.687Z,18.93
2019-04-10T00:44:07.768Z,18.77
2019-04-10T00:49:01.995Z,19.70
2019-04-10T00:53:55.956Z,19.23
2019-04-10T00:58:51.185Z,19.40
2019-04-10T01:03:48.093Z,19.23
2019-04-10T01:08:41.304Z,17.73
2019-04-10T01:13:35.265Z,18.40
2019-04-10T01:18:29.233Z,18.13
2019-04-10T01:23:23.188Z,17.80
2019-04-10T01:28:17.153Z,17.77
2019-04-10T01:33:12.345Z,18.00
2019-04-10T01:38:06.608Z,18.13
2019-04-10T01:43:08.309Z,18.50
2019-04-10T01:47:56.604Z,18.73
2019-04-10T01:52:50.591Z,19.13
2019-04-10T01:57:44.707Z,18.67
2019-04-10T02:02:41.177Z,18.27
2019-04-10T02:07:35.216Z,18.40
2019-04-10T02:12:29.179Z,19.00
2019-04-10T02:17:24.349Z,17.63
2019-04-10T02:22:18.457Z,18.47
2019-04-10T02:27:12.446Z,17.63
2019-04-10T02:32:07.961Z,17.53
2019-04-10T02:37:02.546Z,16.40
2019-04-10T02:41:58.388Z,18.17
2019-04-10T02:46:54.898Z,17.90
2019-04-10T02:51:49.922Z,17.27
2019-04-10T02:56:45.885Z,17.47
2019-04-10T03:01:41.368Z,17.07
2019-04-10T03:06:35.671Z,18.27
2019-04-10T03:11:31.369Z,17.60
2019-04-10T03:16:25.697Z,16.90
2019-04-10T03:21:20.714Z,18.07
2019-04-10T03:26:15.353Z,17.30
2019-04-10T03:31:10.628Z,18.70
2019-04-10T03:36:05.417Z,17.77
2019-04-10T03:40:59.816Z,18.27
2019-04-10T03:45:55.039Z,17.70
2019-04-10T03:50:50.155Z,18.07
2019-04-10T03:55:45.255Z,16.83
2019-04-10T04:00:40.425Z,17.63
2019-04-10T04:05:34.987Z,17.47
2019-04-10T04:10:29.222Z,17.67
2019-04-10T04:15:24.015Z,16.87
2019-04-10T04:20:19.073Z,16.67
2019-04-10T04:25:13.133Z,16.80
2019-04-10T04:30:08.423Z,17.20
2019-04-10T04:35:04.634Z,17.37
2019-04-10T04:39:58.674Z,16.97
2019-04-10T04:44:52.757Z,15.93
2019-04-10T04:49:46.843Z,16.33
2019-04-10T04:54:41.512Z,15.90
2019-04-10T04:59:36.533Z,15.93
2019-04-10T05:04:32.297Z,15.70
2019-04-10T05:09:33.319Z,16.80
2019-04-10T05:14:23.792Z,15.27
2019-04-10T05:19:18.951Z,15.80
2019-04-10T05:24:13.717Z,15.17
2019-04-10T05:29:07.710Z,14.50
2019-04-10T05:34:01.742Z,14.90
2019-04-10T05:38:55.947Z,15.40
2019-04-10T05:43:50.936Z,15.57
2019-04-10T05:48:46.125Z,15.20
2019-04-10T05:53:40.840Z,15.27
2019-04-10T05:58:34.904Z,14.50
2019-04-10T06:03:28.875Z,15.13
2019-04-10T06:08:23.743Z,14.50
2019-04-10T06:13:17.823Z,14.97
2019-04-10T06:18:12.816Z,15.17
2019-04-10T06:23:08.070Z,14.63
2019-04-10T06:28:03.144Z,15.33
2019-04-10T06:32:57.901Z,15.17
2019-04-10T06:37:52.537Z,15.17
2019-04-10T06:42:50.803Z,14.83
2019-04-10T06:47:42.548Z,15.07
2019-04-10T06:52:36.702Z,14.90
2019-04-10T06:57:30.780Z,14.37
2019-04-10T07:02:28.279Z,15.27
2019-04-10T07:07:23.867Z,14.73
2019-04-10T07:12:16.570Z,14.40
2019-04-10T07:17:13.797Z,14.47
2019-04-10T07:22:11.605Z,14.73
2019-04-10T07:27:04.833Z,14.77
2019-04-10T07:31:59.180Z,15.40
2019-04-10T07:36:53.971Z,15.10
2019-04-10T07:41:48.016Z,15.57
2019-04-10T07:46:42.350Z,14.50
2019-04-10T07:51:36.724Z,15.13
2019-04-10T07:56:31.204Z,15.00
2019-04-10T08:01:26.360Z,14.20
2019-04-10T08:06:20.552Z,14.33
2019-04-10T08:11:15.467Z,15.20
2019-04-10T08:16:10.577Z,14.10
2019-04-10T08:21:05.028Z,14.33
2019-04-10T08:26:00.077Z,15.07
2019-04-10T08:30:54.696Z,15.20
2019-04-10T08:35:49.515Z,14.60
2019-04-10T08:40:43.926Z,13.90
2019-04-10T08:45:46.469Z,14.23
2019-04-10T08:50:34.438Z,14.47
2019-04-10T08:55:28.537Z,13.87
2019-04-10T09:00:22.733Z,14.13
2019-04-10T09:05:17.520Z,15.17
2019-04-10T09:10:12.334Z,14.80
2019-04-10T09:15:07.674Z,14.10
2019-04-10T09:20:04.534Z,14.10
2019-04-10T09:24:58.681Z,14.43
2019-04-10T09:29:54.166Z,14.03
2019-04-10T09:34:48.338Z,14.07
2019-04-10T09:39:43.411Z,14.20
2019-04-10T09:44:37.946Z,14.03
2019-04-10T09:49:38.983Z,13.70
2019-04-10T09:54:28.175Z,13.60
2019-04-10T09:59:33.981Z,11.97
2019-04-10T10:04:19.420Z,12.73
2019-04-10T10:09:14.780Z,12.95
2019-04-10T10:14:08.795Z,13.20
2019-04-10T10:19:02.889Z,12.93
2019-04-10T10:23:56.956Z,12.10
2019-04-10T10:28:50.947Z,13.62
2019-04-10T10:33:45.895Z,13.00
2019-04-10T10:38:40.110Z,13.62
2019-04-10T10:43:34.387Z,13.77
2019-04-10T10:48:29.479Z,13.48
2019-04-10T10:53:24.056Z,14.25
2019-04-10T10:58:18.173Z,13.98
2019-04-10T11:03:12.245Z,13.78
2019-04-10T11:08:06.900Z,13.03
2019-04-10T11:13:02.244Z,13.18
2019-04-10T11:17:56.627Z,13.75
2019-04-10T11:22:50.804Z,12.63
2019-04-10T11:27:44.878Z,14.23
2019-04-10T11:32:38.882Z,12.85
2019-04-10T11:37:41.157Z,12.75
2019-04-10T11:42:29.066Z,12.80
2019-04-10T11:47:26.366Z,12.18
2019-04-10T11:52:31.180Z,13.28
2019-04-10T11:57:19.811Z,12.88
2019-04-10T12:02:14.540Z,12.28
2019-04-10T12:07:11.184Z,12.63
2019-04-10T12:12:05.662Z,12.47
2019-04-10T12:16:59.856Z,12.30
2019-04-10T12:21:53.897Z,12.68
2019-04-10T12:26:47.886Z,13.63
2019-04-10T12:31:41.993Z,11.83
2019-04-10T12:36:36.424Z,12.25
2019-04-10T12:41:31.129Z,12.82
2019-04-10T12:46:25.172Z,12.82
2019-04-10T12:51:19.362Z,12.33
2019-04-10T12:56:13.770Z,11.22
2019-04-10T13:01:08.709Z,11.75
2019-04-10T13:06:03.369Z,11.73
2019-04-10T13:10:58.313Z,12.25
2019-04-10T13:15:53.966Z,12.95
2019-04-10T13:20:48.398Z,12.28
2019-04-10T13:25:42.844Z,12.30
2019-04-10T13:30:46.517Z,11.85
2019-04-10T13:35:35.138Z,11.48
2019-04-10T13:40:29.890Z,11.35
2019-04-10T13:45:24.001Z,10.78
2019-04-10T13:50:18.954Z,11.45
2019-04-10T13:55:13.337Z,11.50
2019-04-10T14:00:09.948Z,11.28
2019-04-10T14:05:07.395Z,10.78
2019-04-10T14:10:05.072Z,10.85
2019-04-10T14:14:59.294Z,11.73
2019-04-10T14:19:54.126Z,12.45
2019-04-10T14:24:49.772Z,12.05
2019-04-10T14:29:44.861Z,12.05
2019-04-10T14:34:39.179Z,11.80
2019-04-10T14:39:33.595Z,11.05
2019-04-10T14:44:28.577Z,12.60
2019-04-10T14:49:22.968Z,11.90
2019-04-10T14:54:17.590Z,12.20
2019-04-10T14:59:11.778Z,12.55
2019-04-10T15:04:05.760Z,13.18
2019-04-10T15:08:59.976Z,13.10
2019-04-10T15:13:55.044Z,13.13
2019-04-10T15:18:49.146Z,13.18
2019-04-10T15:23:43.286Z,11.73
2019-04-10T15:28:37.298Z,11.53
2019-04-10T15:33:31.767Z,12.85
2019-04-10T15:38:26.209Z,12.15
2019-04-10T15:43:23.429Z,14.05
2019-04-10T15:48:17.329Z,13.70
2019-04-10T15:53:11.755Z,13.28
2019-04-10T15:58:06.679Z,14.28
2019-04-10T16:03:00.829Z,13.32
2019-04-10T16:07:55.318Z,13.53
2019-04-10T16:12:50.085Z,13.68
2019-04-10T16:17:46.073Z,13.50
2019-04-10T16:22:42.658Z,13.05
2019-04-10T16:27:36.991Z,12.85
2019-04-10T16:32:31.091Z,14.43
2019-04-10T16:37:26.263Z,13.88
2019-04-10T16:45:44.370Z,14.40
2019-04-10T16:50:38.524Z,13.62
2019-04-10T16:55:32.617Z,13.15
2019-04-10T17:00:27.007Z,14.60
2019-04-10T17:05:21.228Z,13.38
2019-04-10T17:10:22.583Z,12.95
2019-04-10T17:15:13.354Z,13.10
2019-04-10T17:20:08.552Z,13.45
2019-04-10T17:25:04.727Z,13.30
2019-04-10T17:29:58.893Z,13.60
2019-04-10T17:34:52.905Z,13.13
2019-04-10T17:39:47.727Z,13.53
2019-04-10T17:44:42.219Z,13.68
2019-04-10T17:49:36.474Z,13.00
2019-04-10T17:54:31.425Z,13.70
2019-04-10T17:59:26.710Z,13.40
2019-04-10T18:04:22.063Z,12.43
2019-04-10T18:09:16.293Z,12.47
2019-04-10T18:14:11.172Z,12.90
2019-04-10T18:19:06.418Z,12.00
2019-04-10T18:24:01.954Z,12.17
2019-04-10T18:28:56.566Z,12.77
2019-04-10T18:33:51.082Z,11.37
2019-04-10T18:38:48.065Z,10.73
2019-04-10T18:43:42.499Z,10.53
2019-04-10T18:48:36.778Z,10.20
2019-04-10T18:53:31.003Z,10.50
2019-04-10T18:58:27.573Z,10.67
2019-04-10T19:03:23.620Z,10.23
2019-04-10T19:08:18.076Z,9.53
2019-04-10T19:16:48.032Z,9.60
2019-04-10T19:21:42.299Z,9.63
2019-04-10T19:26:37.670Z,9.57
2019-04-10T19:31:34.757Z,9.57
2019-04-10T19:36:29.905Z,9.73
2019-04-10T19:45:54.338Z,9.13
2019-04-10T19:50:49.812Z,8.80
2019-04-10T19:55:44.170Z,9.27
2019-04-10T20:00:38.830Z,8.90
2019-04-10T20:05:33.707Z,9.67
2019-04-10T20:10:27.936Z,8.50
2019-04-10T20:16:45.026Z,8.83
2019-04-10T20:21:39.751Z,8.33
2019-04-10T20:26:34.928Z,8.33
2019-04-10T20:31:31.201Z,8.70
2019-04-10T20:36:25.357Z,8.80
2019-04-10T20:41:19.508Z,8.27
2019-04-10T20:46:13.883Z,8.40
2019-04-10T20:51:08.281Z,7.83
2019-04-10T20:56:02.601Z,7.50
2019-04-10T21:00:56.999Z,7.67
2019-04-10T21:05:51.075Z,7.40
2019-04-10T21:10:45.195Z,7.23
2019-04-10T21:15:39.151Z,7.73
2019-04-10T21:20:34.498Z,7.03
2019-04-10T21:25:28.616Z,7.43
2019-04-10T21:30:24.503Z,7.80
2019-04-10T21:35:20.852Z,7.80
2019-04-10T21:40:15.057Z,7.93
2019-04-10T21:45:09.574Z,8.37
2019-04-10T21:50:04.663Z,7.63
2019-04-10T21:55:00.457Z,8.93
2019-04-10T21:59:54.715Z,8.50
2019-04-10T22:04:49.798Z,8.30
2019-04-10T22:10:01.546Z,8.17
2019-04-10T22:14:56.092Z,7.80
2019-04-10T22:19:50.737Z,8.27
2019-04-10T22:24:44.935Z,8.00
2019-04-10T22:29:39.029Z,7.63
2019-04-10T22:34:34.179Z,7.80
2019-04-10T22:39:29.692Z,7.93
2019-04-10T22:44:35.387Z,7.43
2019-04-10T22:49:20.266Z,7.97
2019-04-10T22:54:14.596Z,7.73
2019-04-10T22:59:08.740Z,7.93
2019-04-10T23:04:03.793Z,7.83
2019-04-10T23:08:58.084Z,8.20
2019-04-10T23:13:52.222Z,7.63
2019-04-10T23:18:46.198Z,8.00
2019-04-10T23:23:41.104Z,8.07
2019-04-10T23:28:35.785Z,7.90
2019-04-10T23:33:30.225Z,7.97
2019-04-10T23:38:24.273Z,8.47
2019-04-10T23:43:20.821Z,8.13
2019-04-10T23:48:14.912Z,8.47
2019-04-10T23:53:08.917Z,8.73
2019-04-10T23:58:02.893Z,8.27
